Portada
METAR-TAF:

METAR-TAF

Aeroports :

Ashland, Wisconsin, Estats Units d'Amèrica

latitud: 46-32-59N, longitud: 090-55-06W, altitud: 251 m

Observació

L'informe es va fer fa 52 minuts, a les 13:49 UTC
Vent 5 kt del Sud-Oest
Temperatura -7°C
Humitat 93%
Pressió 1017 hPa
Visibilitat: 2.0 km
Núvols disperses a una alçada de 600 ft
Cel cobert a una alçada de 1200 ft
boirina

METAR: KASX 111349Z AUTO 22005KT 1 1/4SM BR SCT006 OVC012 M07/M08 A3002 RMK AO2 SLP182 T10721078

Hora: 08:41 (14:41 UTC)


TAF: manca

Observacions i pronòstics meteorològics de més de 4000 aeroports (METAR i TAF).

Les estacions disponibles són els punts grocs i vermells al mapa.

Posi el ratolí al punt desitjat per veure el nom de l'estació.

Feu clic per veure les observacions i els pronòstics meteorològics.

Per canviar el mapa: feu clic els botons verds amb una creu de color negre per apropar; al botó verd amb un guió per allunyar la imatge; o en les fletxes verdes per a mapes adjacents.


METAR-TAF: